sensor_id;sensor_type;location;lat;lon;timestamp;temperature;humidity
15777;DHT22;7989;51.198;6.676;2024-02-26T00:01:51;7.80;99.90
15777;DHT22;7989;51.198;6.676;2024-02-26T00:04:18;7.80;99.90
15777;DHT22;7989;51.198;6.676;2024-02-26T00:06:44;7.80;99.90
15777;DHT22;7989;51.198;6.676;2024-02-26T00:09:11;7.90;99.90
15777;DHT22;7989;51.198;6.676;2024-02-26T00:11:38;7.90;99.90
15777;DHT22;7989;51.198;6.676;2024-02-26T00:14:05;7.90;99.90
15777;DHT22;7989;51.198;6.676;2024-02-26T00:16:32;7.90;99.90
15777;DHT22;7989;51.198;6.676;2024-02-26T00:19:00;7.90;99.90
15777;DHT22;7989;51.198;6.676;2024-02-26T00:21:28;7.90;99.90
15777;DHT22;7989;51.198;6.676;2024-02-26T00:23:55;7.80;99.90
15777;DHT22;7989;51.198;6.676;2024-02-26T00:26:21;7.80;99.90
15777;DHT22;7989;51.198;6.676;2024-02-26T00:28:48;7.80;99.90
15777;DHT22;7989;51.198;6.676;2024-02-26T00:31:16;7.80;99.90
15777;DHT22;7989;51.198;6.676;2024-02-26T00:33:43;7.90;99.90
15777;DHT22;7989;51.198;6.676;2024-02-26T00:36:11;8.00;99.90
15777;DHT22;7989;51.198;6.676;2024-02-26T00:38:38;8.00;99.90
15777;DHT22;7989;51.198;6.676;2024-02-26T00:41:06;8.00;99.90
15777;DHT22;7989;51.198;6.676;2024-02-26T00:43:32;8.00;99.90
15777;DHT22;7989;51.198;6.676;2024-02-26T00:45:59;8.00;99.90
15777;DHT22;7989;51.198;6.676;2024-02-26T00:48:26;8.10;99.90
15777;DHT22;7989;51.198;6.676;2024-02-26T00:50:53;8.00;99.90
15777;DHT22;7989;51.198;6.676;2024-02-26T00:53:21;8.00;99.90
15777;DHT22;7989;51.198;6.676;2024-02-26T00:55:47;8.00;99.90
15777;DHT22;7989;51.198;6.676;2024-02-26T00:58:14;8.00;99.90
15777;DHT22;7989;51.198;6.676;2024-02-26T01:00:42;8.00;99.90
15777;DHT22;7989;51.198;6.676;2024-02-26T01:03:08;8.00;99.90
15777;DHT22;7989;51.198;6.676;2024-02-26T01:05:36;8.00;99.90
15777;DHT22;7989;51.198;6.676;2024-02-26T01:08:03;8.00;99.90
15777;DHT22;7989;51.198;6.676;2024-02-26T01:10:31;8.00;99.90
15777;DHT22;7989;51.198;6.676;2024-02-26T01:12:59;8.00;99.90
15777;DHT22;7989;51.198;6.676;2024-02-26T01:15:26;8.10;99.90
15777;DHT22;7989;51.198;6.676;2024-02-26T01:17:53;8.10;99.90
15777;DHT22;7989;51.198;6.676;2024-02-26T01:20:20;8.10;99.90
15777;DHT22;7989;51.198;6.676;2024-02-26T01:22:47;8.10;99.90
15777;DHT22;7989;51.198;6.676;2024-02-26T01:25:14;8.10;99.90
15777;DHT22;7989;51.198;6.676;2024-02-26T01:27:42;8.10;99.90
15777;DHT22;7989;51.198;6.676;2024-02-26T01:30:10;8.20;99.90
15777;DHT22;7989;51.198;6.676;2024-02-26T01:32:37;8.20;99.90
15777;DHT22;7989;51.198;6.676;2024-02-26T01:35:04;8.20;99.90
15777;DHT22;7989;51.198;6.676;2024-02-26T01:37:33;8.20;99.90
15777;DHT22;7989;51.198;6.676;2024-02-26T01:40:00;8.20;99.90
15777;DHT22;7989;51.198;6.676;2024-02-26T01:42:29;8.10;99.90
15777;DHT22;7989;51.198;6.676;2024-02-26T01:44:57;8.10;99.90
15777;DHT22;7989;51.198;6.676;2024-02-26T01:47:25;8.10;99.90
15777;DHT22;7989;51.198;6.676;2024-02-26T01:49:53;8.10;99.90
15777;DHT22;7989;51.198;6.676;2024-02-26T01:52:21;8.10;99.90
15777;DHT22;7989;51.198;6.676;2024-02-26T01:54:48;8.00;99.90
15777;DHT22;7989;51.198;6.676;2024-02-26T01:57:16;8.00;99.90
15777;DHT22;7989;51.198;6.676;2024-02-26T01:59:43;8.00;99.90
15777;DHT22;7989;51.198;6.676;2024-02-26T02:02:11;7.90;99.90
15777;DHT22;7989;51.198;6.676;2024-02-26T02:04:39;8.00;99.90
15777;DHT22;7989;51.198;6.676;2024-02-26T02:07:06;7.90;99.90
15777;DHT22;7989;51.198;6.676;2024-02-26T02:09:33;7.90;99.90
15777;DHT22;7989;51.198;6.676;2024-02-26T02:12:00;7.80;99.90
15777;DHT22;7989;51.198;6.676;2024-02-26T02:14:27;7.80;99.90
15777;DHT22;7989;51.198;6.676;2024-02-26T02:16:54;7.80;99.90
15777;DHT22;7989;51.198;6.676;2024-02-26T02:19:22;7.70;99.90
15777;DHT22;7989;51.198;6.676;2024-02-26T02:21:50;7.70;99.90
15777;DHT22;7989;51.198;6.676;2024-02-26T02:24:17;7.70;99.90
15777;DHT22;7989;51.198;6.676;2024-02-26T02:26:44;7.60;99.90
15777;DHT22;7989;51.198;6.676;2024-02-26T02:29:12;7.60;99.90
15777;DHT22;7989;51.198;6.676;2024-02-26T02:31:39;7.60;99.90
15777;DHT22;7989;51.198;6.676;2024-02-26T02:34:06;7.60;99.90
15777;DHT22;7989;51.198;6.676;2024-02-26T02:36:33;7.50;99.90
15777;DHT22;7989;51.198;6.676;2024-02-26T02:39:01;7.50;99.90
15777;DHT22;7989;51.198;6.676;2024-02-26T02:41:28;7.50;99.90
15777;DHT22;7989;51.198;6.676;2024-02-26T02:43:55;7.50;99.90
15777;DHT22;7989;51.198;6.676;2024-02-26T02:46:23;7.40;99.90
15777;DHT22;7989;51.198;6.676;2024-02-26T02:48:49;7.40;99.90
15777;DHT22;7989;51.198;6.676;2024-02-26T02:51:16;7.30;99.90
15777;DHT22;7989;51.198;6.676;2024-02-26T02:53:43;7.30;99.90
15777;DHT22;7989;51.198;6.676;2024-02-26T02:56:11;7.30;99.90
15777;DHT22;7989;51.198;6.676;2024-02-26T02:58:38;7.20;99.90
15777;DHT22;7989;51.198;6.676;2024-02-26T03:01:05;7.20;99.90
15777;DHT22;7989;51.198;6.676;2024-02-26T03:03:32;7.20;99.90
15777;DHT22;7989;51.198;6.676;2024-02-26T03:05:58;7.20;99.90
15777;DHT22;7989;51.198;6.676;2024-02-26T03:08:25;7.10;99.90
15777;DHT22;7989;51.198;6.676;2024-02-26T03:10:52;7.10;99.90
15777;DHT22;7989;51.198;6.676;2024-02-26T03:13:21;7.10;99.90
15777;DHT22;7989;51.198;6.676;2024-02-26T03:15:47;7.10;99.90
15777;DHT22;7989;51.198;6.676;2024-02-26T03:18:14;7.10;99.90
15777;DHT22;7989;51.198;6.676;2024-02-26T03:20:41;7.10;99.90
15777;DHT22;7989;51.198;6.676;2024-02-26T03:23:08;7.10;99.90
15777;DHT22;7989;51.198;6.676;2024-02-26T03:25:38;7.10;99.90
15777;DHT22;7989;51.198;6.676;2024-02-26T03:28:04;7.10;99.90
15777;DHT22;7989;51.198;6.676;2024-02-26T03:30:32;7.10;99.90
15777;DHT22;7989;51.198;6.676;2024-02-26T03:33:00;7.00;99.90
15777;DHT22;7989;51.198;6.676;2024-02-26T03:35:26;7.00;99.90
15777;DHT22;7989;51.198;6.676;2024-02-26T03:37:53;7.00;99.90
15777;DHT22;7989;51.198;6.676;2024-02-26T03:40:20;7.00;99.90
15777;DHT22;7989;51.198;6.676;2024-02-26T03:42:47;7.00;99.90
15777;DHT22;7989;51.198;6.676;2024-02-26T03:45:14;6.90;99.90
15777;DHT22;7989;51.198;6.676;2024-02-26T03:47:42;6.90;99.90
15777;DHT22;7989;51.198;6.676;2024-02-26T03:50:09;6.90;99.90
15777;DHT22;7989;51.198;6.676;2024-02-26T03:52:36;6.90;99.90
15777;DHT22;7989;51.198;6.676;2024-02-26T03:55:03;6.90;99.90
15777;DHT22;7989;51.198;6.676;2024-02-26T03:57:30;6.90;99.90
15777;DHT22;7989;51.198;6.676;2024-02-26T03:59:57;6.90;99.90
15777;DHT22;7989;51.198;6.676;2024-02-26T04:02:24;6.80;99.90
15777;DHT22;7989;51.198;6.676;2024-02-26T04:04:52;6.70;99.90
15777;DHT22;7989;51.198;6.676;2024-02-26T04:07:19;6.70;99.90
15777;DHT22;7989;51.198;6.676;2024-02-26T04:09:46;6.70;99.90
15777;DHT22;7989;51.198;6.676;2024-02-26T04:12:12;6.70;99.90
15777;DHT22;7989;51.198;6.676;2024-02-26T04:14:39;6.70;99.90
15777;DHT22;7989;51.198;6.676;2024-02-26T04:17:06;6.70;99.90
15777;DHT22;7989;51.198;6.676;2024-02-26T04:19:33;6.60;99.90
15777;DHT22;7989;51.198;6.676;2024-02-26T04:22:01;6.60;99.90
15777;DHT22;7989;51.198;6.676;2024-02-26T04:24:28;6.60;99.90
15777;DHT22;7989;51.198;6.676;2024-02-26T04:26:55;6.60;99.90
15777;DHT22;7989;51.198;6.676;2024-02-26T04:29:21;6.60;99.90
15777;DHT22;7989;51.198;6.676;2024-02-26T04:31:48;6.60;99.90
15777;DHT22;7989;51.198;6.676;2024-02-26T04:34:15;6.60;99.90
15777;DHT22;7989;51.198;6.676;2024-02-26T04:36:42;6.50;99.90
15777;DHT22;7989;51.198;6.676;2024-02-26T04:39:10;6.50;99.90
15777;DHT22;7989;51.198;6.676;2024-02-26T04:41:37;6.60;99.90
15777;DHT22;7989;51.198;6.676;2024-02-26T04:44:04;6.50;99.90
15777;DHT22;7989;51.198;6.676;2024-02-26T04:46:31;6.50;99.90
15777;DHT22;7989;51.198;6.676;2024-02-26T04:48:58;6.50;99.90
15777;DHT22;7989;51.198;6.676;2024-02-26T04:51:25;6.40;99.90
15777;DHT22;7989;51.198;6.676;2024-02-26T04:53:51;6.40;99.90
15777;DHT22;7989;51.198;6.676;2024-02-26T04:56:20;6.40;99.90
15777;DHT22;7989;51.198;6.676;2024-02-26T04:58:47;6.40;99.90
15777;DHT22;7989;51.198;6.676;2024-02-26T05:01:15;6.30;99.90
15777;DHT22;7989;51.198;6.676;2024-02-26T05:03:42;6.30;99.90
15777;DHT22;7989;51.198;6.676;2024-02-26T05:06:09;6.30;99.90
15777;DHT22;7989;51.198;6.676;2024-02-26T05:08:36;6.30;99.90
15777;DHT22;7989;51.198;6.676;2024-02-26T05:11:04;6.30;99.90
15777;DHT22;7989;51.198;6.676;2024-02-26T05:13:33;6.30;99.90
15777;DHT22;7989;51.198;6.676;2024-02-26T05:15:59;6.30;99.90
15777;DHT22;7989;51.198;6.676;2024-02-26T05:18:27;6.30;99.90
15777;DHT22;7989;51.198;6.676;2024-02-26T05:20:54;6.30;99.90
15777;DHT22;7989;51.198;6.676;2024-02-26T05:23:21;6.30;99.90
15777;DHT22;7989;51.198;6.676;2024-02-26T05:25:48;6.30;99.90
15777;DHT22;7989;51.198;6.676;2024-02-26T05:28:15;6.20;99.90
15777;DHT22;7989;51.198;6.676;2024-02-26T05:30:43;6.30;99.90
15777;DHT22;7989;51.198;6.676;2024-02-26T05:33:10;6.30;99.90
15777;DHT22;7989;51.198;6.676;2024-02-26T05:35:37;6.40;99.90
15777;DHT22;7989;51.198;6.676;2024-02-26T05:38:04;6.40;99.90
15777;DHT22;7989;51.198;6.676;2024-02-26T05:40:31;6.40;99.90
15777;DHT22;7989;51.198;6.676;2024-02-26T05:42:57;6.40;99.90
15777;DHT22;7989;51.198;6.676;2024-02-26T05:45:24;6.40;99.90
15777;DHT22;7989;51.198;6.676;2024-02-26T05:47:52;6.40;99.90
15777;DHT22;7989;51.198;6.676;2024-02-26T05:50:19;6.40;99.90
15777;DHT22;7989;51.198;6.676;2024-02-26T05:52:46;6.40;99.90
15777;DHT22;7989;51.198;6.676;2024-02-26T05:55:12;6.40;99.90
15777;DHT22;7989;51.198;6.676;2024-02-26T05:57:41;6.40;99.90
15777;DHT22;7989;51.198;6.676;2024-02-26T06:00:08;6.40;99.90
15777;DHT22;7989;51.198;6.676;2024-02-26T06:02:35;6.40;99.90
15777;DHT22;7989;51.198;6.676;2024-02-26T06:05:04;6.30;99.90
15777;DHT22;7989;51.198;6.676;2024-02-26T06:07:32;6.30;99.90
15777;DHT22;7989;51.198;6.676;2024-02-26T06:10:00;6.30;99.90
15777;DHT22;7989;51.198;6.676;2024-02-26T06:12:28;6.30;99.90
15777;DHT22;7989;51.198;6.676;2024-02-26T06:14:56;6.30;99.90
15777;DHT22;7989;51.198;6.676;2024-02-26T06:17:23;6.30;99.90
15777;DHT22;7989;51.198;6.676;2024-02-26T06:19:50;6.30;99.90
15777;DHT22;7989;51.198;6.676;2024-02-26T06:22:18;6.30;99.90
15777;DHT22;7989;51.198;6.676;2024-02-26T06:24:45;6.30;99.90
15777;DHT22;7989;51.198;6.676;2024-02-26T06:27:12;6.30;99.90
15777;DHT22;7989;51.198;6.676;2024-02-26T06:29:39;6.30;99.90
15777;DHT22;7989;51.198;6.676;2024-02-26T06:32:06;6.30;99.90
15777;DHT22;7989;51.198;6.676;2024-02-26T06:34:33;6.30;99.90
15777;DHT22;7989;51.198;6.676;2024-02-26T06:36:59;6.30;99.90
15777;DHT22;7989;51.198;6.676;2024-02-26T06:39:27;6.30;99.90
15777;DHT22;7989;51.198;6.676;2024-02-26T06:41:54;6.20;99.90
15777;DHT22;7989;51.198;6.676;2024-02-26T06:44:27;6.30;99.90
15777;DHT22;7989;51.198;6.676;2024-02-26T06:46:57;6.20;99.90
15777;DHT22;7989;51.198;6.676;2024-02-26T06:49:24;6.20;99.90
15777;DHT22;7989;51.198;6.676;2024-02-26T06:51:50;6.20;99.90
15777;DHT22;7989;51.198;6.676;2024-02-26T06:54:17;6.20;99.90
15777;DHT22;7989;51.198;6.676;2024-02-26T06:56:45;6.20;99.90
15777;DHT22;7989;51.198;6.676;2024-02-26T06:59:12;6.20;99.90
15777;DHT22;7989;51.198;6.676;2024-02-26T07:01:40;6.20;99.90
15777;DHT22;7989;51.198;6.676;2024-02-26T07:04:07;6.20;99.90
15777;DHT22;7989;51.198;6.676;2024-02-26T07:06:36;6.20;99.90
15777;DHT22;7989;51.198;6.676;2024-02-26T07:09:03;6.20;99.90
15777;DHT22;7989;51.198;6.676;2024-02-26T07:11:30;6.20;99.90
15777;DHT22;7989;51.198;6.676;2024-02-26T07:13:58;6.20;99.90
15777;DHT22;7989;51.198;6.676;2024-02-26T07:16:26;6.20;99.90
15777;DHT22;7989;51.198;6.676;2024-02-26T07:18:53;6.20;99.90
15777;DHT22;7989;51.198;6.676;2024-02-26T07:21:19;6.10;99.90
15777;DHT22;7989;51.198;6.676;2024-02-26T07:23:46;6.10;99.90
15777;DHT22;7989;51.198;6.676;2024-02-26T07:26:13;6.20;99.90
15777;DHT22;7989;51.198;6.676;2024-02-26T07:28:40;6.20;99.90
15777;DHT22;7989;51.198;6.676;2024-02-26T07:31:08;6.20;99.90
15777;DHT22;7989;51.198;6.676;2024-02-26T07:33:35;6.20;99.90
15777;DHT22;7989;51.198;6.676;2024-02-26T07:36:02;6.20;99.90
15777;DHT22;7989;51.198;6.676;2024-02-26T07:38:29;6.20;99.90
15777;DHT22;7989;51.198;6.676;2024-02-26T07:40:56;6.20;99.90
15777;DHT22;7989;51.198;6.676;2024-02-26T07:43:23;6.30;99.90
15777;DHT22;7989;51.198;6.676;2024-02-26T07:45:50;6.30;99.90
15777;DHT22;7989;51.198;6.676;2024-02-26T07:48:18;6.30;99.90
15777;DHT22;7989;51.198;6.676;2024-02-26T07:50:45;6.30;99.90
15777;DHT22;7989;51.198;6.676;2024-02-26T07:53:11;6.30;99.90
15777;DHT22;7989;51.198;6.676;2024-02-26T07:55:38;6.40;99.90
15777;DHT22;7989;51.198;6.676;2024-02-26T07:58:06;6.40;99.90
15777;DHT22;7989;51.198;6.676;2024-02-26T08:00:33;6.40;99.90
15777;DHT22;7989;51.198;6.676;2024-02-26T08:02:59;6.40;99.90
15777;DHT22;7989;51.198;6.676;2024-02-26T08:05:28;6.40;99.90
15777;DHT22;7989;51.198;6.676;2024-02-26T08:07:55;6.50;99.90
15777;DHT22;7989;51.198;6.676;2024-02-26T08:10:22;6.50;99.90
15777;DHT22;7989;51.198;6.676;2024-02-26T08:12:48;6.50;99.90
15777;DHT22;7989;51.198;6.676;2024-02-26T08:15:15;6.50;99.90
15777;DHT22;7989;51.198;6.676;2024-02-26T08:17:44;6.50;99.90
15777;DHT22;7989;51.198;6.676;2024-02-26T08:20:13;6.50;99.90
15777;DHT22;7989;51.198;6.676;2024-02-26T08:22:41;6.50;99.90
15777;DHT22;7989;51.198;6.676;2024-02-26T08:25:08;6.50;99.90
15777;DHT22;7989;51.198;6.676;2024-02-26T08:27:36;6.50;99.90
15777;DHT22;7989;51.198;6.676;2024-02-26T08:30:03;6.50;99.90
15777;DHT22;7989;51.198;6.676;2024-02-26T08:32:30;6.60;99.90
15777;DHT22;7989;51.198;6.676;2024-02-26T08:34:57;6.60;99.90
15777;DHT22;7989;51.198;6.676;2024-02-26T08:37:24;6.60;99.90
15777;DHT22;7989;51.198;6.676;2024-02-26T08:39:52;6.70;99.90
15777;DHT22;7989;51.198;6.676;2024-02-26T08:42:19;6.60;99.90
15777;DHT22;7989;51.198;6.676;2024-02-26T08:44:45;6.70;99.90
15777;DHT22;7989;51.198;6.676;2024-02-26T08:47:12;6.60;99.90
15777;DHT22;7989;51.198;6.676;2024-02-26T08:49:42;6.70;99.90
15777;DHT22;7989;51.198;6.676;2024-02-26T08:52:09;6.70;99.90
15777;DHT22;7989;51.198;6.676;2024-02-26T08:54:36;6.70;99.90
15777;DHT22;7989;51.198;6.676;2024-02-26T08:57:05;6.70;99.90
15777;DHT22;7989;51.198;6.676;2024-02-26T08:59:32;6.70;99.90
15777;DHT22;7989;51.198;6.676;2024-02-26T09:01:59;6.70;99.90
15777;DHT22;7989;51.198;6.676;2024-02-26T09:04:25;6.80;99.90
15777;DHT22;7989;51.198;6.676;2024-02-26T09:06:52;6.70;99.90
15777;DHT22;7989;51.198;6.676;2024-02-26T09:09:19;6.70;99.90
15777;DHT22;7989;51.198;6.676;2024-02-26T09:11:47;6.60;99.90
15777;DHT22;7989;51.198;6.676;2024-02-26T09:14:18;6.70;99.90
15777;DHT22;7989;51.198;6.676;2024-02-26T09:16:45;6.80;99.90
15777;DHT22;7989;51.198;6.676;2024-02-26T09:19:13;6.80;99.90
15777;DHT22;7989;51.198;6.676;2024-02-26T09:21:42;6.80;99.90
15777;DHT22;7989;51.198;6.676;2024-02-26T09:24:09;6.80;99.90
15777;DHT22;7989;51.198;6.676;2024-02-26T09:26:36;6.80;99.90
15777;DHT22;7989;51.198;6.676;2024-02-26T09:29:03;6.80;99.90
15777;DHT22;7989;51.198;6.676;2024-02-26T09:31:31;6.80;99.90
15777;DHT22;7989;51.198;6.676;2024-02-26T09:33:59;6.80;99.90
15777;DHT22;7989;51.198;6.676;2024-02-26T09:36:26;6.80;99.90
15777;DHT22;7989;51.198;6.676;2024-02-26T09:38:53;6.80;99.90
15777;DHT22;7989;51.198;6.676;2024-02-26T09:41:20;6.90;99.90
15777;DHT22;7989;51.198;6.676;2024-02-26T09:43:48;6.90;99.90
15777;DHT22;7989;51.198;6.676;2024-02-26T09:46:19;6.90;99.90
15777;DHT22;7989;51.198;6.676;2024-02-26T09:48:47;6.90;99.90
15777;DHT22;7989;51.198;6.676;2024-02-26T09:51:15;6.90;99.90
15777;DHT22;7989;51.198;6.676;2024-02-26T09:53:43;7.00;99.90
15777;DHT22;7989;51.198;6.676;2024-02-26T09:56:11;7.00;99.90
15777;DHT22;7989;51.198;6.676;2024-02-26T09:58:39;7.00;99.90
15777;DHT22;7989;51.198;6.676;2024-02-26T10:01:11;7.00;99.90
15777;DHT22;7989;51.198;6.676;2024-02-26T10:03:40;7.00;99.90
15777;DHT22;7989;51.198;6.676;2024-02-26T10:06:11;7.00;99.90
15777;DHT22;7989;51.198;6.676;2024-02-26T10:08:37;7.10;99.90
15777;DHT22;7989;51.198;6.676;2024-02-26T10:11:05;7.00;99.90
15777;DHT22;7989;51.198;6.676;2024-02-26T10:13:34;7.10;99.90
15777;DHT22;7989;51.198;6.676;2024-02-26T10:16:01;7.10;99.90
15777;DHT22;7989;51.198;6.676;2024-02-26T10:18:45;7.10;99.90
15777;DHT22;7989;51.198;6.676;2024-02-26T10:21:13;7.10;99.90
15777;DHT22;7989;51.198;6.676;2024-02-26T10:23:41;7.10;99.90
15777;DHT22;7989;51.198;6.676;2024-02-26T10:26:10;7.10;99.90
15777;DHT22;7989;51.198;6.676;2024-02-26T10:28:37;7.10;99.90
15777;DHT22;7989;51.198;6.676;2024-02-26T10:31:06;7.00;99.90
15777;DHT22;7989;51.198;6.676;2024-02-26T10:33:33;6.90;99.90
15777;DHT22;7989;51.198;6.676;2024-02-26T10:36:01;6.90;99.90
15777;DHT22;7989;51.198;6.676;2024-02-26T10:38:29;6.90;99.90
15777;DHT22;7989;51.198;6.676;2024-02-26T10:40:56;6.90;99.90
15777;DHT22;7989;51.198;6.676;2024-02-26T10:43:23;6.90;99.90
15777;DHT22;7989;51.198;6.676;2024-02-26T10:45:51;6.90;99.90
15777;DHT22;7989;51.198;6.676;2024-02-26T10:48:18;7.00;99.90
15777;DHT22;7989;51.198;6.676;2024-02-26T10:50:46;6.90;99.90
15777;DHT22;7989;51.198;6.676;2024-02-26T10:53:16;6.90;99.90
15777;DHT22;7989;51.198;6.676;2024-02-26T10:55:48;6.90;99.90
15777;DHT22;7989;51.198;6.676;2024-02-26T10:58:16;6.90;99.90
15777;DHT22;7989;51.198;6.676;2024-02-26T11:00:43;6.90;99.90
15777;DHT22;7989;51.198;6.676;2024-02-26T11:03:14;7.00;99.90
15777;DHT22;7989;51.198;6.676;2024-02-26T11:05:43;7.00;99.90
15777;DHT22;7989;51.198;6.676;2024-02-26T11:08:11;7.10;99.90
15777;DHT22;7989;51.198;6.676;2024-02-26T11:10:38;7.10;99.90
15777;DHT22;7989;51.198;6.676;2024-02-26T11:13:10;7.10;99.90
15777;DHT22;7989;51.198;6.676;2024-02-26T11:15:39;7.20;99.90
15777;DHT22;7989;51.198;6.676;2024-02-26T11:18:07;7.30;99.90
15777;DHT22;7989;51.198;6.676;2024-02-26T11:20:38;7.30;99.90
15777;DHT22;7989;51.198;6.676;2024-02-26T11:23:07;7.30;99.90
15777;DHT22;7989;51.198;6.676;2024-02-26T11:25:35;7.20;99.90
15777;DHT22;7989;51.198;6.676;2024-02-26T11:28:04;7.20;99.90
15777;DHT22;7989;51.198;6.676;2024-02-26T11:30:37;7.20;99.90
15777;DHT22;7989;51.198;6.676;2024-02-26T11:33:07;7.20;99.90
15777;DHT22;7989;51.198;6.676;2024-02-26T11:35:34;7.10;99.90
15777;DHT22;7989;51.198;6.676;2024-02-26T11:38:03;7.20;99.90
15777;DHT22;7989;51.198;6.676;2024-02-26T11:40:32;7.20;99.90
15777;DHT22;7989;51.198;6.676;2024-02-26T11:42:59;7.20;99.90
15777;DHT22;7989;51.198;6.676;2024-02-26T11:45:52;7.10;99.90
15777;DHT22;7989;51.198;6.676;2024-02-26T11:48:21;7.10;99.90
15777;DHT22;7989;51.198;6.676;2024-02-26T11:50:49;7.20;99.90
15777;DHT22;7989;51.198;6.676;2024-02-26T11:53:20;7.20;99.90
15777;DHT22;7989;51.198;6.676;2024-02-26T11:55:47;7.20;99.90
15777;DHT22;7989;51.198;6.676;2024-02-26T11:58:13;7.20;99.90
15777;DHT22;7989;51.198;6.676;2024-02-26T12:00:40;7.30;99.90
15777;DHT22;7989;51.198;6.676;2024-02-26T12:03:08;7.20;99.90
15777;DHT22;7989;51.198;6.676;2024-02-26T12:05:37;7.30;99.90
15777;DHT22;7989;51.198;6.676;2024-02-26T12:08:07;7.20;99.90
15777;DHT22;7989;51.198;6.676;2024-02-26T12:10:35;7.20;99.90
15777;DHT22;7989;51.198;6.676;2024-02-26T12:13:06;7.30;99.90
15777;DHT22;7989;51.198;6.676;2024-02-26T12:15:36;7.20;99.90
15777;DHT22;7989;51.198;6.676;2024-02-26T12:18:05;7.20;99.90
15777;DHT22;7989;51.198;6.676;2024-02-26T12:20:34;7.20;99.90
15777;DHT22;7989;51.198;6.676;2024-02-26T12:23:02;7.20;99.90
15777;DHT22;7989;51.198;6.676;2024-02-26T12:25:30;7.20;99.90
15777;DHT22;7989;51.198;6.676;2024-02-26T12:27:58;7.20;99.90
15777;DHT22;7989;51.198;6.676;2024-02-26T12:30:26;7.10;99.90
15777;DHT22;7989;51.198;6.676;2024-02-26T12:32:55;7.10;99.90
15777;DHT22;7989;51.198;6.676;2024-02-26T12:35:24;7.10;99.90
15777;DHT22;7989;51.198;6.676;2024-02-26T12:37:53;7.10;99.90
15777;DHT22;7989;51.198;6.676;2024-02-26T12:40:20;7.10;99.90
15777;DHT22;7989;51.198;6.676;2024-02-26T12:42:46;7.20;99.90
15777;DHT22;7989;51.198;6.676;2024-02-26T12:45:14;7.20;99.90
15777;DHT22;7989;51.198;6.676;2024-02-26T12:47:42;7.20;99.90
15777;DHT22;7989;51.198;6.676;2024-02-26T12:50:10;7.20;99.90
15777;DHT22;7989;51.198;6.676;2024-02-26T12:52:39;7.10;99.90
15777;DHT22;7989;51.198;6.676;2024-02-26T12:55:08;7.10;99.90
15777;DHT22;7989;51.198;6.676;2024-02-26T12:57:37;7.20;99.90
15777;DHT22;7989;51.198;6.676;2024-02-26T13:00:05;7.30;99.90
15777;DHT22;7989;51.198;6.676;2024-02-26T13:02:35;7.20;99.90
15777;DHT22;7989;51.198;6.676;2024-02-26T13:05:03;7.20;99.90
15777;DHT22;7989;51.198;6.676;2024-02-26T13:07:30;7.20;99.90
15777;DHT22;7989;51.198;6.676;2024-02-26T13:09:58;7.20;99.90
15777;DHT22;7989;51.198;6.676;2024-02-26T13:12:27;7.20;99.90
15777;DHT22;7989;51.198;6.676;2024-02-26T13:15:00;7.20;99.90
15777;DHT22;7989;51.198;6.676;2024-02-26T13:17:27;7.20;99.90
15777;DHT22;7989;51.198;6.676;2024-02-26T13:19:54;7.20;99.90
15777;DHT22;7989;51.198;6.676;2024-02-26T13:22:21;7.20;99.90
15777;DHT22;7989;51.198;6.676;2024-02-26T13:24:54;7.20;99.90
15777;DHT22;7989;51.198;6.676;2024-02-26T13:27:22;7.30;99.90
15777;DHT22;7989;51.198;6.676;2024-02-26T13:30:05;7.30;99.90
15777;DHT22;7989;51.198;6.676;2024-02-26T13:32:33;7.30;99.90
15777;DHT22;7989;51.198;6.676;2024-02-26T13:35:08;7.30;99.90
15777;DHT22;7989;51.198;6.676;2024-02-26T13:37:35;7.30;99.90
15777;DHT22;7989;51.198;6.676;2024-02-26T13:40:05;7.30;99.90
15777;DHT22;7989;51.198;6.676;2024-02-26T13:42:32;7.30;99.90
15777;DHT22;7989;51.198;6.676;2024-02-26T13:45:00;7.30;99.90
15777;DHT22;7989;51.198;6.676;2024-02-26T13:47:27;7.30;99.90
15777;DHT22;7989;51.198;6.676;2024-02-26T13:49:54;7.30;99.90
15777;DHT22;7989;51.198;6.676;2024-02-26T13:52:22;7.40;99.90
15777;DHT22;7989;51.198;6.676;2024-02-26T13:54:48;7.40;99.90
15777;DHT22;7989;51.198;6.676;2024-02-26T13:57:15;7.40;99.90
15777;DHT22;7989;51.198;6.676;2024-02-26T13:59:42;7.50;99.90
15777;DHT22;7989;51.198;6.676;2024-02-26T14:02:11;7.50;99.90
15777;DHT22;7989;51.198;6.676;2024-02-26T14:04:38;7.60;99.90
15777;DHT22;7989;51.198;6.676;2024-02-26T14:07:05;7.60;99.90
15777;DHT22;7989;51.198;6.676;2024-02-26T14:09:32;7.60;99.90
15777;DHT22;7989;51.198;6.676;2024-02-26T14:11:59;7.60;99.90
15777;DHT22;7989;51.198;6.676;2024-02-26T14:14:27;7.60;99.90
15777;DHT22;7989;51.198;6.676;2024-02-26T14:16:54;7.60;99.90
15777;DHT22;7989;51.198;6.676;2024-02-26T14:19:22;7.70;99.90
15777;DHT22;7989;51.198;6.676;2024-02-26T14:21:49;7.70;99.90
15777;DHT22;7989;51.198;6.676;2024-02-26T14:24:16;7.70;99.90
15777;DHT22;7989;51.198;6.676;2024-02-26T14:26:42;7.80;99.90
15777;DHT22;7989;51.198;6.676;2024-02-26T14:29:09;7.90;99.90
15777;DHT22;7989;51.198;6.676;2024-02-26T14:31:36;8.00;99.90
15777;DHT22;7989;51.198;6.676;2024-02-26T14:34:03;8.00;99.90
15777;DHT22;7989;51.198;6.676;2024-02-26T14:36:31;8.00;99.90
15777;DHT22;7989;51.198;6.676;2024-02-26T14:38:57;8.20;99.90
15777;DHT22;7989;51.198;6.676;2024-02-26T14:41:24;8.10;99.90
15777;DHT22;7989;51.198;6.676;2024-02-26T14:43:51;8.10;99.90
15777;DHT22;7989;51.198;6.676;2024-02-26T14:46:18;8.20;99.90
15777;DHT22;7989;51.198;6.676;2024-02-26T14:48:45;8.20;99.90
15777;DHT22;7989;51.198;6.676;2024-02-26T14:51:12;8.20;99.90
15777;DHT22;7989;51.198;6.676;2024-02-26T14:53:40;8.10;99.90
15777;DHT22;7989;51.198;6.676;2024-02-26T14:56:07;8.10;99.90
15777;DHT22;7989;51.198;6.676;2024-02-26T14:58:35;8.00;99.90
15777;DHT22;7989;51.198;6.676;2024-02-26T15:01:03;8.00;99.90
15777;DHT22;7989;51.198;6.676;2024-02-26T15:03:30;8.00;99.90
15777;DHT22;7989;51.198;6.676;2024-02-26T15:05:57;8.00;99.90
15777;DHT22;7989;51.198;6.676;2024-02-26T15:08:23;8.00;99.90
15777;DHT22;7989;51.198;6.676;2024-02-26T15:10:52;8.00;99.90
15777;DHT22;7989;51.198;6.676;2024-02-26T15:13:18;8.00;99.90
15777;DHT22;7989;51.198;6.676;2024-02-26T15:15:45;8.00;99.90
15777;DHT22;7989;51.198;6.676;2024-02-26T15:18:12;8.00;99.90
15777;DHT22;7989;51.198;6.676;2024-02-26T15:20:41;7.90;99.90
15777;DHT22;7989;51.198;6.676;2024-02-26T15:23:08;7.90;99.90
15777;DHT22;7989;51.198;6.676;2024-02-26T15:25:35;7.80;99.90
15777;DHT22;7989;51.198;6.676;2024-02-26T15:28:04;7.80;99.90
15777;DHT22;7989;51.198;6.676;2024-02-26T15:30:31;7.80;99.90
15777;DHT22;7989;51.198;6.676;2024-02-26T15:33:00;7.80;99.90
15777;DHT22;7989;51.198;6.676;2024-02-26T15:35:27;7.80;99.90
15777;DHT22;7989;51.198;6.676;2024-02-26T15:37:54;7.80;99.90
15777;DHT22;7989;51.198;6.676;2024-02-26T15:40:20;7.80;99.90
15777;DHT22;7989;51.198;6.676;2024-02-26T15:42:47;7.80;99.90
15777;DHT22;7989;51.198;6.676;2024-02-26T15:45:16;7.70;99.90
15777;DHT22;7989;51.198;6.676;2024-02-26T15:47:43;7.70;99.90
15777;DHT22;7989;51.198;6.676;2024-02-26T15:50:10;7.70;99.90
15777;DHT22;7989;51.198;6.676;2024-02-26T15:52:37;7.70;99.90
15777;DHT22;7989;51.198;6.676;2024-02-26T15:55:05;7.70;99.90
15777;DHT22;7989;51.198;6.676;2024-02-26T15:57:32;7.60;99.90
15777;DHT22;7989;51.198;6.676;2024-02-26T16:00:00;7.60;99.90
15777;DHT22;7989;51.198;6.676;2024-02-26T16:02:32;7.70;99.90
15777;DHT22;7989;51.198;6.676;2024-02-26T16:04:58;7.70;99.90